Time;durP1;ratioP1;P1;durP2;ratioP2;P2;SDS_P1;SDS_P2;PMS_P1;PMS_P2;Temp;Humidity;BMP_temperature;BMP_pressure;BME280_temperature;BME280_humidity;BME280_pressure;Samples;Min_cycle;Max_cycle;Signal;HPM_P1;HPM_P2
2021/01/19 00:01:59;;;;;;;98.53;63.83;;;3.00;82.80;;;;;;5072924;28;20083;-57
2021/01/19 00:04:24;;;;;;;102.10;67.80;;;3.00;82.30;;;;;;5074955;28;20049;-54
2021/01/19 00:06:50;;;;;;;100.47;66.13;;;3.00;82.40;;;;;;5072758;28;20043;-52
2021/01/19 00:09:16;;;;;;;102.40;66.83;;;2.90;82.50;;;;;;5079748;28;20051;-52
2021/01/19 00:11:41;;;;;;;103.67;65.87;;;3.00;82.60;;;;;;5074154;28;20032;-54
2021/01/19 00:14:07;;;;;;;97.30;65.83;;;3.00;82.60;;;;;;5079460;28;20040;-55
2021/01/19 00:16:33;;;;;;;104.27;67.50;;;3.00;82.50;;;;;;5068533;28;20114;-54
2021/01/19 00:18:58;;;;;;;101.57;68.33;;;3.00;82.30;;;;;;5076143;28;20494;-53
2021/01/19 00:21:24;;;;;;;103.43;65.67;;;2.90;82.50;;;;;;5070127;28;20490;-52
2021/01/19 00:23:49;;;;;;;100.67;68.60;;;2.90;82.50;;;;;;5076252;28;20379;-50
2021/01/19 00:26:15;;;;;;;103.03;66.40;;;2.90;82.60;;;;;;5074382;28;20510;-50
2021/01/19 00:28:41;;;;;;;103.07;68.57;;;2.90;82.40;;;;;;5075950;28;20093;-51
2021/01/19 00:31:08;;;;;;;106.37;67.13;;;3.00;82.40;;;;;;5075980;28;20048;-54
2021/01/19 00:33:34;;;;;;;103.00;68.30;;;2.90;82.30;;;;;;5076436;28;20047;-51
2021/01/19 00:36:00;;;;;;;107.73;67.43;;;2.90;82.10;;;;;;5081075;28;20041;-56
2021/01/19 00:38:25;;;;;;;103.87;67.10;;;2.90;82.20;;;;;;5076323;28;20056;-56
2021/01/19 00:40:51;;;;;;;102.60;67.30;;;2.90;82.10;;;;;;5075420;28;20032;-51
2021/01/19 00:43:17;;;;;;;103.87;65.80;;;2.80;82.40;;;;;;5073482;28;20032;-55
2021/01/19 00:45:42;;;;;;;103.07;65.67;;;2.90;82.50;;;;;;5086134;28;20043;-52
2021/01/19 00:48:09;;;;;;;102.23;66.03;;;2.80;82.50;;;;;;5066094;28;20047;-50
2021/01/19 00:50:34;;;;;;;103.07;65.93;;;2.80;82.70;;;;;;5084584;28;20097;-52
2021/01/19 00:53:00;;;;;;;102.23;68.40;;;2.90;82.40;;;;;;5075561;28;20036;-53
2021/01/19 00:55:26;;;;;;;102.47;67.53;;;2.90;82.50;;;;;;5082016;28;20443;-55
2021/01/19 00:57:52;;;;;;;101.17;67.83;;;2.90;82.40;;;;;;5074865;28;20078;-55
2021/01/19 01:00:18;;;;;;;110.00;69.30;;;2.80;82.40;;;;;;5077510;28;20036;-53
2021/01/19 01:02:43;;;;;;;98.93;64.93;;;2.90;82.80;;;;;;5057811;28;20513;-51
2021/01/19 01:05:10;;;;;;;97.83;65.33;;;2.90;82.50;;;;;;5081413;28;20053;-51
2021/01/19 01:07:38;;;;;;;101.73;65.70;;;2.90;82.50;;;;;;5062833;28;20475;-54
2021/01/19 01:10:06;;;;;;;101.20;66.03;;;2.80;82.70;;;;;;5081329;28;20478;-52
2021/01/19 01:12:32;;;;;;;105.57;66.93;;;2.70;82.30;;;;;;5077933;28;20037;-51
2021/01/19 01:14:58;;;;;;;112.63;69.93;;;2.70;82.50;;;;;;5067294;28;20109;-53
2021/01/19 01:17:24;;;;;;;107.13;69.87;;;2.70;82.70;;;;;;5084696;28;20081;-55
2021/01/19 01:19:50;;;;;;;102.73;68.13;;;2.70;82.70;;;;;;5072450;28;20028;-52
2021/01/19 01:22:15;;;;;;;117.10;72.63;;;2.70;82.40;;;;;;5080652;28;20040;-53
2021/01/19 01:24:41;;;;;;;109.83;69.93;;;2.60;82.70;;;;;;5075329;28;20036;-55
2021/01/19 01:27:07;;;;;;;115.57;72.00;;;2.60;82.60;;;;;;5083270;28;20494;-50
2021/01/19 01:29:32;;;;;;;111.23;70.13;;;2.60;83.10;;;;;;5075788;28;20461;-54
2021/01/19 01:31:59;;;;;;;109.57;72.30;;;2.60;83.20;;;;;;5059724;28;20036;-54
2021/01/19 01:34:24;;;;;;;115.50;72.73;;;2.60;83.10;;;;;;5073736;28;20066;-54
2021/01/19 01:36:50;;;;;;;113.50;72.20;;;2.60;83.20;;;;;;5078346;28;20029;-54
2021/01/19 01:39:16;;;;;;;117.63;74.97;;;;;;;;;;5077846;28;20397;-54
2021/01/19 01:41:42;;;;;;;110.73;69.43;;;;;;;;;;5076929;28;20059;-50
2021/01/19 01:44:08;;;;;;;111.00;71.63;;;;;;;;;;5077718;28;20537;-52
2021/01/19 01:46:35;;;;;;;114.03;72.23;;;;;;;;;;5079799;28;20048;-53
2021/01/19 01:49:02;;;;;;;111.07;72.47;;;;;;;;;;5079260;28;20048;-52
2021/01/19 01:51:28;;;;;;;118.23;72.97;;;;;;;;;;5072233;28;20114;-52
2021/01/19 01:53:56;;;;;;;116.40;73.80;;;;;;;;;;5073204;28;20404;-51
2021/01/19 01:56:22;;;;;;;120.27;73.77;;;;;;;;;;5075035;28;20070;-51
2021/01/19 01:58:48;;;;;;;112.10;71.53;;;;;;;;;;5076448;28;20394;-53
2021/01/19 02:01:14;;;;;;;113.60;72.23;;;;;;;;;;5077285;28;20056;-50
2021/01/19 02:03:40;;;;;;;114.10;74.33;;;;;;;;;;5079340;28;20522;-52
2021/01/19 02:06:06;;;;;;;110.20;72.20;;;;;;;;;;5079011;28;20105;-50
2021/01/19 02:08:51;;;;;;;114.10;72.23;;;;;;;;;;5077622;28;20397;-50
2021/01/19 02:11:22;;;;;;;107.40;71.18;;;;;;;;;;5075382;28;20048;-51
2021/01/19 02:13:57;;;;;;;114.27;71.17;;;;;;;;;;5075884;28;20126;-51
2021/01/19 02:16:30;;;;;;;114.23;71.77;;;;;;;;;;5078808;28;20055;-50
2021/01/19 02:19:02;;;;;;;111.47;72.70;;;;;;;;;;5075596;28;20118;-55
2021/01/19 02:21:43;;;;;;;113.23;71.43;;;;;;;;;;5076515;28;20068;-51
2021/01/19 02:24:21;;;;;;;111.47;73.70;;;;;;;;;;5073516;28;20044;-52
2021/01/19 02:26:47;;;;;;;113.57;74.20;;;;;;;;;;5075907;28;20040;-50
2021/01/19 02:29:26;;;;;;;116.97;73.97;;;;;;;;;;5080105;28;20049;-51
2021/01/19 02:32:03;;;;;;;120.13;75.63;;;;;;;;;;5076106;28;20054;-52
2021/01/19 02:34:46;;;;;;;111.80;72.83;;;;;;;;;;5079926;28;20532;-51
2021/01/19 02:37:14;;;;;;;119.43;75.20;;;;;;;;;;5074009;28;20040;-54
2021/01/19 02:39:40;;;;;;;122.30;78.87;;;;;;;;;;5070553;28;20054;-55
2021/01/19 02:42:10;;;;;;;128.30;80.03;;;;;;;;;;5074867;28;20040;-49
2021/01/19 02:44:38;;;;;;;125.00;77.27;;;;;;;;;;5074366;28;20047;-53
2021/01/19 02:47:04;;;;;;;127.30;78.63;;;;;;;;;;5072796;28;20513;-53
2021/01/19 02:49:30;;;;;;;131.47;83.23;;;;;;;;;;5068325;28;20052;-49
2021/01/19 02:51:57;;;;;;;134.43;82.33;;;;;;;;;;5075293;28;20036;-53
2021/01/19 02:54:23;;;;;;;123.83;77.73;;;;;;;;;;5077434;28;20402;-54
2021/01/19 02:57:00;;;;;;;128.53;79.13;;;;;;;;;;5071383;28;20081;-53
2021/01/19 02:59:45;;;;;;;129.50;79.60;;;;;;;;;;5074366;28;20036;-53
2021/01/19 03:02:12;;;;;;;138.73;80.35;;;;;;;;;;5043632;28;20040;-52
2021/01/19 03:04:39;;;;;;;132.43;80.57;;;;;;;;;;5074702;28;20048;-51
2021/01/19 03:07:09;;;;;;;128.30;79.73;;;;;;;;;;5079753;28;20036;-53
2021/01/19 03:09:44;;;;;;;126.53;75.90;;;;;;;;;;5071121;28;20045;-52
2021/01/19 03:12:14;;;;;;;121.67;76.50;;;;;;;;;;5078343;28;20299;-54
2021/01/19 03:14:40;;;;;;;121.37;75.80;;;;;;;;;;5074999;28;20033;-49
2021/01/19 03:17:06;;;;;;;113.63;74.23;;;;;;;;;;5076623;28;20089;-54
2021/01/19 03:19:38;;;;;;;124.67;76.13;;;;;;;;;;5072631;28;20045;-53
2021/01/19 03:22:04;;;;;;;120.60;74.60;;;;;;;;;;5076180;28;20504;-54
2021/01/19 03:24:30;;;;;;;130.80;78.00;;;;;;;;;;5070252;28;20041;-51
2021/01/19 03:26:56;;;;;;;116.93;74.40;;;;;;;;;;5077117;28;20028;-53
2021/01/19 03:29:22;;;;;;;114.73;72.50;;;;;;;;;;5075531;28;20032;-50
2021/01/19 03:31:48;;;;;;;127.73;78.43;;;;;;;;;;5073226;28;20127;-51
2021/01/19 03:34:14;;;;;;;112.20;72.60;;;;;;;;;;5075100;28;20115;-53
2021/01/19 03:36:40;;;;;;;121.67;75.27;;;;;;;;;;5078570;28;20505;-50
2021/01/19 03:39:06;;;;;;;116.73;72.63;;;;;;;;;;5070683;28;20047;-52
2021/01/19 03:41:32;;;;;;;117.20;72.03;;;;;;;;;;5053614;28;20119;-49
2021/01/19 03:43:58;;;;;;;117.03;71.30;;;;;;;;;;5072753;28;20048;-52
2021/01/19 03:46:25;;;;;;;113.03;71.00;;;;;;;;;;5078485;28;20592;-54
2021/01/19 03:48:51;;;;;;;119.13;72.77;;;;;;;;;;5070963;28;20097;-54
2021/01/19 03:51:17;;;;;;;114.27;73.90;;;;;;;;;;5072780;28;20119;-51
2021/01/19 03:53:43;;;;;;;120.60;72.20;;;;;;;;;;5078920;28;20064;-51
2021/01/19 03:56:09;;;;;;;115.60;71.13;;;;;;;;;;5070143;28;20484;-49
2021/01/19 03:58:35;;;;;;;118.70;70.53;;;;;;;;;;5075011;28;20169;-50
2021/01/19 04:01:01;;;;;;;117.33;70.67;;;;;;;;;;5071512;28;20126;-52
2021/01/19 04:03:27;;;;;;;132.47;76.80;;;;;;;;;;5076005;28;20087;-53
2021/01/19 04:05:53;;;;;;;129.30;77.33;;;;;;;;;;5069925;28;20453;-54
2021/01/19 04:08:19;;;;;;;127.20;75.47;;;;;;;;;;5076651;28;20041;-52
2021/01/19 04:10:48;;;;;;;126.73;76.67;;;;;;;;;;5073750;28;20044;-54
2021/01/19 04:13:15;;;;;;;131.10;78.97;;;;;;;;;;5073546;28;20064;-51
2021/01/19 04:15:41;;;;;;;123.13;75.73;;;;;;;;;;5071392;28;20043;-52
2021/01/19 04:18:07;;;;;;;128.03;78.40;;;;;;;;;;5076310;28;20032;-52
2021/01/19 04:20:33;;;;;;;120.87;76.20;;;;;;;;;;5060487;28;20051;-51
2021/01/19 04:22:59;;;;;;;124.70;77.87;;;;;;;;;;5077747;28;20089;-50
2021/01/19 04:25:25;;;;;;;125.40;78.07;;;;;;;;;;5078184;28;20059;-54
2021/01/19 04:27:52;;;;;;;129.53;77.90;;;;;;;;;;5082676;28;20037;-53
2021/01/19 04:30:18;;;;;;;124.00;77.53;;;;;;;;;;5080397;28;20116;-54
2021/01/19 04:32:46;;;;;;;124.53;79.17;;;;;;;;;;5074518;28;20133;-54
2021/01/19 04:35:12;;;;;;;127.67;76.97;;;;;;;;;;5078029;28;20037;-52
2021/01/19 04:37:38;;;;;;;119.13;74.47;;;;;;;;;;5077286;28;20044;-54
2021/01/19 04:40:04;;;;;;;120.67;77.60;;;;;;;;;;5082845;28;20040;-52
2021/01/19 04:42:33;;;;;;;128.50;78.33;;;;;;;;;;5072491;28;20040;-51
2021/01/19 04:45:01;;;;;;;128.10;78.40;;;;;;;;;;5081739;28;20050;-54
2021/01/19 04:47:27;;;;;;;115.23;72.90;;;;;;;;;;5072863;28;20040;-54
2021/01/19 04:49:54;;;;;;;121.57;75.23;;;;;;;;;;5081046;28;20042;-52
2021/01/19 04:52:22;;;;;;;114.73;73.97;;;;;;;;;;5076931;28;20048;-52
2021/01/19 04:54:57;;;;;;;122.43;75.23;;;;;;;;;;5081933;28;20102;-49
2021/01/19 04:57:29;;;;;;;117.53;75.47;;;;;;;;;;5074960;28;20039;-50
2021/01/19 04:59:57;;;;;;;117.27;72.77;;;;;;;;;;5077100;28;20068;-51
2021/01/19 05:02:35;;;;;;;121.13;76.80;;;;;;;;;;5074527;28;20032;-51
2021/01/19 05:05:19;;;;;;;121.50;76.40;;;;;;;;;;5077704;28;20490;-51
2021/01/19 05:08:01;;;;;;;93.28;60.85;;;;;;;;;;5068786;28;20097;-50
2021/01/19 05:10:33;;;;;;;125.27;77.30;;;;;;;;;;5077990;28;20925;-51
2021/01/19 05:13:02;;;;;;;126.13;79.40;;;;;;;;;;5073726;28;20502;-53
2021/01/19 05:15:28;;;;;;;119.80;77.10;;;;;;;;;;5077370;28;20051;-56
2021/01/19 05:17:57;;;;;;;124.17;79.67;;;;;;;;;;5077668;28;20040;-50
2021/01/19 05:20:30;;;;;;;124.80;78.57;;;;;;;;;;5080233;28;20734;-53
2021/01/19 05:22:57;;;;;;;120.17;79.93;;;;;;;;;;5073003;28;20375;-54
2021/01/19 05:25:23;;;;;;;125.63;81.67;;;;;;;;;;5077769;28;20060;-51
2021/01/19 05:27:50;;;;;;;135.90;86.43;;;;;;;;;;5060161;28;20435;-52
2021/01/19 05:30:16;;;;;;;126.00;83.00;;;;;;;;;;5079468;28;20122;-54
2021/01/19 05:32:43;;;;;;;131.83;85.37;;;;;;;;;;5075367;28;20056;-54
2021/01/19 05:35:19;;;;;;;133.50;84.53;;;;;;;;;;5078311;28;20037;-53
2021/01/19 05:38:01;;;;;;;123.83;80.83;;;;;;;;;;5077357;28;20054;-54
2021/01/19 05:40:31;;;;;;;125.77;81.87;;;;;;;;;;5083323;28;20041;-52
2021/01/19 05:42:57;;;;;;;133.27;85.50;;;;;;;;;;5077844;28;20166;-51
2021/01/19 05:45:23;;;;;;;136.07;82.33;;;;;;;;;;5077028;28;20083;-53
2021/01/19 05:47:50;;;;;;;126.57;79.53;;;;;;;;;;5077617;28;20053;-49
2021/01/19 05:50:16;;;;;;;124.93;78.67;;;;;;;;;;5073505;28;20170;-51
2021/01/19 05:52:43;;;;;;;127.27;75.00;;;;;;;;;;5060879;28;20498;-49
2021/01/19 05:55:10;;;;;;;118.77;76.13;;;;;;;;;;5079425;28;20048;-51
2021/01/19 05:57:36;;;;;;;125.90;74.63;;;;;;;;;;5075692;28;20079;-51
2021/01/19 06:00:04;;;;;;;126.83;75.83;;;;;;;;;;5069617;28;20048;-52
2021/01/19 06:02:37;;;;;;;125.87;75.33;;;;;;;;;;5080147;28;20040;-50
2021/01/19 06:05:29;;;;;;;120.07;74.93;;;;;;;;;;5074737;28;20040;-50
2021/01/19 06:07:56;;;;;;;129.57;77.20;;;;;;;;;;5073548;28;20036;-49
2021/01/19 06:10:27;;;;;;;129.33;79.87;;;;;;;;;;5076105;28;20401;-51
2021/01/19 06:12:53;;;;;;;129.33;81.90;;;;;;;;;;5076117;28;20051;-51
2021/01/19 06:15:29;;;;;;;126.73;80.60;;;;;;;;;;5075149;28;20044;-50
2021/01/19 06:17:56;;;;;;;130.03;84.77;;;;;;;;;;5078384;28;20044;-50
2021/01/19 06:20:22;;;;;;;126.33;85.43;;;;;;;;;;5071871;28;20040;-50
2021/01/19 06:22:48;;;;;;;129.30;84.77;;;;;;;;;;5080173;28;20055;-48
2021/01/19 06:25:14;;;;;;;125.80;81.23;;;;;;;;;;5075601;28;20055;-52
2021/01/19 06:27:40;;;;;;;117.87;79.90;;;;;;;;;;5080435;28;20035;-50
2021/01/19 06:30:08;;;;;;;124.43;80.70;;;;;;;;;;5072276;28;20040;-53
2021/01/19 06:32:34;;;;;;;116.07;79.83;;;;;;;;;;5079359;28;20338;-49
2021/01/19 06:35:10;;;;;;;120.30;79.67;;;;;;;;;;5076739;28;20042;-51
2021/01/19 06:37:36;;;;;;;113.60;78.60;;;;;;;;;;5074752;28;20041;-50
2021/01/19 06:40:07;;;;;;;120.93;80.07;;;;;;;;;;5079872;28;20350;-52
2021/01/19 06:42:34;;;;;;;124.53;79.97;;;;;;;;;;5076261;28;20036;-51
2021/01/19 06:45:01;;;;;;;114.40;77.90;;;;;;;;;;5075792;28;20052;-51
2021/01/19 06:47:27;;;;;;;122.03;80.03;;;;;;;;;;5059619;28;20535;-54
2021/01/19 06:49:54;;;;;;;115.93;79.73;;;;;;;;;;5072770;28;20102;-50
2021/01/19 06:52:20;;;;;;;115.43;79.47;;;;;;;;;;5073630;28;20827;-49
2021/01/19 06:54:55;;;;;;;118.00;79.83;;;;;;;;;;5078322;28;20036;-53
2021/01/19 06:57:27;;;;;;;121.28;78.72;;;;;;;;;;5072669;28;20100;-53
2021/01/19 07:00:26;;;;;;;132.57;81.10;;;;;;;;;;5076558;28;20032;-50
2021/01/19 07:02:53;;;;;;;124.53;76.70;;;;;;;;;;4999459;28;20387;-50
2021/01/19 07:05:23;;;;;;;135.70;81.47;;;;;;;;;;5073118;28;20877;-53
2021/01/19 07:07:54;;;;;;;143.50;84.80;;;;;;;;;;5076678;28;20061;-52
2021/01/19 07:10:25;;;;;;;139.63;83.37;;;;;;;;;;5074595;28;20075;-50
2021/01/19 07:13:19;;;;;;;137.67;81.27;;;;;;;;;;5071223;28;20089;-53
2021/01/19 07:15:48;;;;;;;143.57;82.60;;;;;;;;;;5049862;28;20047;-49
2021/01/19 07:18:18;;;;;;;134.53;79.53;;;;;;;;;;5072766;28;20040;-51
2021/01/19 07:21:04;;;;;;;131.93;78.87;;;;;;;;;;5078196;28;20134;-51
2021/01/19 07:23:45;;;;;;;131.43;76.00;;;;;;;;;;5070353;28;20117;-54
2021/01/19 07:26:43;;;;;;;143.27;81.17;;;;;;;;;;5073781;28;20052;-53
2021/01/19 07:29:09;;;;;;;136.30;80.93;;;;;;;;;;5009247;28;20591;-54
2021/01/19 07:31:36;;;;;;;145.50;80.93;;;;;;;;;;5076448;28;20047;-52
2021/01/19 07:34:02;;;;;;;140.83;80.77;;;;;;;;;;5055862;28;20048;-54
2021/01/19 07:36:29;;;;;;;132.47;80.47;;;;;;;;;;5078348;28;20116;-53
2021/01/19 07:38:55;;;;;;;136.63;78.63;;;;;;;;;;5065086;28;20040;-54
2021/01/19 07:41:27;;;;;;;138.20;78.87;;;;;;;;;;5079976;28;20147;-55
2021/01/19 07:43:53;;;;;;;145.23;82.70;;;;;;;;;;5072077;28;20052;-54
2021/01/19 07:46:29;;;;;;;144.93;81.40;;;;;;;;;;5058057;28;20382;-54
2021/01/19 07:49:02;;;;;;;141.57;79.47;;;;;;;;;;5074195;28;20105;-54
2021/01/19 07:51:38;;;;;;;148.13;80.73;;;;;;;;;;5077777;28;20032;-55
2021/01/19 07:54:05;;;;;;;135.73;78.50;;;;;;;;;;5032542;28;20544;-54
2021/01/19 07:56:32;;;;;;;140.60;77.97;;;;;;;;;;5083540;28;20426;-52
2021/01/19 07:59:00;;;;;;;139.70;78.00;;;;;;;;;;5073893;28;20036;-53
2021/01/19 08:01:27;;;;;;;142.97;79.13;;;;;;;;;;5082540;28;20435;-49
2021/01/19 08:03:53;;;;;;;148.80;82.10;;;;;;;;;;5073737;28;22765;-54
2021/01/19 08:06:32;;;;;;;139.33;79.53;;;;;;;;;;5079535;28;20064;-54
2021/01/19 08:09:10;;;;;;;136.77;80.57;;;;;;;;;;5051375;28;20114;-50
2021/01/19 08:11:36;;;;;;;145.40;82.40;;;;;;;;;;5025575;28;20068;-52
2021/01/19 08:14:02;;;;;;;154.83;79.73;;;;;;;;;;5066954;28;21903;-53
2021/01/19 08:16:29;;;;;;;143.73;80.80;;;;;;;;;;5079567;28;20044;-50
2021/01/19 08:19:18;;;;;;;136.20;78.77;;;;;;;;;;5075409;28;20152;-54
2021/01/19 08:21:54;;;;;;;142.83;80.17;;;;;;;;;;5043193;28;20055;-49
2021/01/19 08:24:21;;;;;;;136.80;76.63;;;;;;;;;;5068930;28;20050;-52
2021/01/19 08:26:49;;;;;;;145.27;82.10;;;;;;;;;;5078563;28;20043;-52
2021/01/19 08:29:18;;;;;;;140.77;80.87;;;;;;;;;;5077417;28;20040;-50
2021/01/19 08:31:50;;;;;;;142.13;79.03;;;;;;;;;;5074840;28;20490;-54
2021/01/19 08:34:17;;;;;;;145.03;81.93;;;;;;;;;;5076827;28;20043;-54
2021/01/19 08:36:45;;;;;;;142.97;83.53;;;;;;;;;;5077261;28;20508;-54
2021/01/19 08:39:12;;;;;;;142.07;81.10;;;;;;;;;;5046694;28;20044;-53
2021/01/19 08:41:42;;;;;;;134.90;79.10;;;;;;;;;;5075964;28;20117;-54
2021/01/19 08:44:09;;;;;;;133.10;78.90;;;;;;;;;;5078356;28;20131;-54
2021/01/19 08:46:35;;;;;;;135.60;80.17;;;;;;;;;;5076139;28;20052;-51
2021/01/19 08:49:03;;;;;;;139.60;83.17;;;;;;;;;;5079709;28;20070;-54
2021/01/19 08:51:29;;;;;;;140.43;79.60;;;;;;;;;;5069901;28;20044;-52
2021/01/19 08:53:55;;;;;;;140.63;81.80;;;;;;;;;;5066360;28;20040;-50
2021/01/19 08:56:25;;;;;;;135.97;80.10;;;;;;;;;;5073495;28;20054;-52
2021/01/19 08:58:51;;;;;;;141.13;80.20;;;;;;;;;;5079443;28;20162;-51
2021/01/19 09:01:18;;;;;;;140.00;82.13;;;;;;;;;;5072193;28;20040;-53
2021/01/19 09:03:56;;;;;;;145.53;84.10;;;;;;;;;;5074603;28;20536;-52
2021/01/19 09:06:22;;;;;;;140.10;82.63;;;;;;;;;;5074588;28;20033;-54
2021/01/19 09:08:56;;;;;;;139.37;85.77;;;;;;;;;;5077653;28;20074;-55
2021/01/19 09:11:42;;;;;;;143.10;83.30;;;;;;;;;;5074275;28;20036;-53
2021/01/19 09:14:08;;;;;;;145.77;85.10;;;;;;;;;;4981168;28;20953;-53
2021/01/19 09:16:38;;;;;;;146.83;83.37;;;;;;;;;;5008824;28;20050;-56
2021/01/19 09:19:05;;;;;;;146.70;86.00;;;;;;;;;;5016030;28;20041;-55
2021/01/19 09:21:32;;;;;;;140.93;85.03;;;;;;;;;;5013154;28;20041;-55
2021/01/19 09:23:59;;;;;;;143.50;83.50;;;;;;;;;;5010958;28;20049;-52
2021/01/19 09:26:25;;;;;;;146.57;85.23;;;;;;;;;;5016526;28;20083;-55
2021/01/19 09:28:52;;;;;;;143.27;86.93;;;;;;;;;;5009615;28;20041;-53
2021/01/19 09:31:22;;;;;;;147.43;86.47;;;;;;;;;;5016292;28;20049;-55
2021/01/19 09:33:51;;;;;;;140.53;84.77;;;;;;;;;;5013952;28;20527;-53
2021/01/19 09:36:17;;;;;;;141.77;85.40;;;;;;;;;;5013817;28;20041;-53
2021/01/19 09:38:44;;;;;;;144.97;88.33;;;;;;;;;;5022300;28;20079;-54
2021/01/19 09:41:14;;;;;;;144.13;87.57;;;;;;;;;;5019370;28;20492;-52
2021/01/19 09:43:40;;;;;;;157.57;90.10;;;;;;;;;;5013494;28;20557;-53
2021/01/19 09:46:07;;;;;;;147.80;90.30;;;;;;;;;;5069858;28;20056;-52
2021/01/19 09:48:35;;;;;;;146.63;91.97;;;;;;;;;;5070892;28;20139;-55
2021/01/19 09:51:06;;;;;;;136.90;87.50;;;;;;;;;;5068145;28;20777;-53
2021/01/19 09:53:33;;;;;;;143.13;86.53;;;;;;;;;;5073909;28;20042;-54
2021/01/19 09:56:13;;;;;;;146.17;87.23;;;;;;;;;;5078176;28;20458;-56
2021/01/19 09:58:39;;;;;;;145.40;89.07;;;;;;;;;;5043697;28;20497;-55
2021/01/19 10:01:05;;;;;;;146.87;92.00;;;;;;;;;;5073512;28;20402;-55
2021/01/19 10:03:34;;;;;;;148.10;90.10;;;;;;;;;;5072586;28;20044;-61
2021/01/19 10:06:04;;;;;;;148.70;93.10;;;;;;;;;;5078521;28;20155;-60
2021/01/19 10:08:30;;;;;;;148.40;91.07;;;;;;;;;;5034763;28;20510;-60
2021/01/19 10:10:56;;;;;;;142.53;89.63;;;;;;;;;;5064265;28;20039;-60
2021/01/19 10:13:26;;;;;;;134.27;85.70;;;;;;;;;;5053903;28;20050;-60
2021/01/19 10:16:03;;;;;;;136.97;87.67;;;;;;;;;;5074894;28;20032;-60
2021/01/19 10:18:29;;;;;;;130.10;85.60;;;;;;;;;;5073571;28;20551;-59
2021/01/19 10:20:55;;;;;;;140.40;88.40;;;;;;;;;;5077539;28;20040;-59
2021/01/19 10:23:26;;;;;;;129.83;85.73;;;;;;;;;;5081637;28;20097;-59
2021/01/19 10:25:55;;;;;;;140.87;89.43;;;;;;;;;;5073903;28;20048;-59
2021/01/19 10:28:24;;;;;;;135.57;89.10;;;;;;;;;;5077676;28;20618;-54
2021/01/19 10:30:50;;;;;;;138.97;88.57;;;;;;;;;;5073702;28;22826;-52
2021/01/19 10:33:26;;;;;;;138.20;89.33;;;;;;;;;;5081501;28;20075;-55
2021/01/19 10:35:52;;;;;;;131.97;85.27;;;;;;;;;;5058884;28;20490;-54
2021/01/19 10:38:27;;;;;;;136.57;89.77;;;;;;;;;;5054205;27;20450;-52
2021/01/19 10:40:53;;;;;;;138.13;90.07;;;;;;;;;;5048982;28;20163;-52
2021/01/19 10:43:19;;;;;;;130.63;89.03;;;;;;;;;;5053439;28;20047;-53
2021/01/19 10:45:45;;;;;;;134.50;85.97;;;;;;;;;;5052461;28;20045;-53
2021/01/19 10:48:29;;;;;;;128.83;84.73;;;;;;;;;;5053112;28;20090;-55
2021/01/19 10:50:55;;;;;;;121.43;83.80;;;;;;;;;;5046661;28;20041;-52
2021/01/19 10:53:28;;;;;;;118.17;80.03;;;;;;;;;;5057729;28;20390;-53
2021/01/19 10:55:54;;;;;;;120.27;79.77;;;;;;;;;;5064833;28;20037;-54
2021/01/19 10:58:20;;;;;;;115.47;77.40;;;;;;;;;;5045486;28;21976;-52
2021/01/19 11:00:46;;;;;;;120.97;82.13;;;;;;;;;;5052886;28;20927;-52
2021/01/19 11:03:12;;;;;;;115.73;78.73;;;5.70;70.90;;;;;;5046249;28;20052;-54
2021/01/19 11:05:37;;;;;;;123.60;80.23;;;5.70;71.60;;;;;;5049692;28;20140;-54
2021/01/19 11:08:03;;;;;;;111.63;77.70;;;5.80;72.10;;;;;;5050454;28;20110;-54
2021/01/19 11:10:31;;;;;;;113.20;79.00;;;5.90;71.30;;;;;;5058408;28;20060;-55
2021/01/19 11:12:57;;;;;;;115.23;78.13;;;5.90;70.90;;;;;;5058921;28;20037;-55
2021/01/19 11:15:23;;;;;;;107.37;72.17;;;5.80;71.40;;;;;;5050817;28;20383;-55
2021/01/19 11:17:52;;;;;;;120.13;79.77;;;5.80;69.80;;;;;;5054820;28;20467;-54
2021/01/19 11:20:18;;;;;;;117.13;79.40;;;6.00;70.80;;;;;;5045627;28;20102;-55
2021/01/19 11:22:47;;;;;;;115.90;78.07;;;6.00;70.20;;;;;;5048438;28;20041;-56
2021/01/19 11:25:14;;;;;;;101.13;70.67;;;6.00;70.40;;;;;;5052910;28;20059;-54
2021/01/19 11:27:40;;;;;;;109.30;70.17;;;5.90;69.50;;;;;;5064635;28;20106;-56
2021/01/19 11:30:07;;;;;;;107.23;73.83;;;5.90;69.60;;;;;;5053167;28;20041;-54
2021/01/19 11:32:33;;;;;;;112.77;74.70;;;6.10;69.10;;;;;;5062059;28;20099;-53
2021/01/19 11:34:59;;;;;;;109.60;77.47;;;6.20;69.30;;;;;;5063534;28;20397;-56
2021/01/19 11:37:25;;;;;;;156.77;109.53;;;6.40;69.10;;;;;;5050535;28;20123;-55
2021/01/19 11:39:50;;;;;;;200.17;141.07;;;6.40;68.40;;;;;;5052554;28;20068;-54
2021/01/19 11:42:16;;;;;;;120.90;84.57;;;6.40;69.40;;;;;;5058481;28;20068;-52
2021/01/19 11:44:42;;;;;;;119.23;81.93;;;6.30;68.30;;;;;;5048643;28;20033;-55
2021/01/19 11:47:07;;;;;;;115.50;81.47;;;6.40;68.80;;;;;;5040374;28;20122;-51
2021/01/19 11:49:34;;;;;;;117.77;82.20;;;6.40;69.10;;;;;;5041451;28;20329;-55
2021/01/19 11:52:00;;;;;;;124.70;86.57;;;6.40;69.30;;;;;;5039249;28;20033;-52
2021/01/19 11:54:26;;;;;;;133.40;90.27;;;6.40;69.60;;;;;;5028790;28;20405;-54
2021/01/19 11:56:52;;;;;;;132.30;90.63;;;6.30;69.60;;;;;;5019891;28;20057;-54
2021/01/19 11:59:19;;;;;;;130.57;89.00;;;6.40;70.70;;;;;;5029550;28;20878;-55
2021/01/19 12:01:52;;;;;;;128.00;90.27;;;6.20;70.60;;;;;;5033563;28;20383;-54
2021/01/19 12:04:18;;;;;;;129.47;89.83;;;6.40;70.20;;;;;;5030119;28;20042;-54
2021/01/19 12:06:43;;;;;;;130.80;85.20;;;6.20;70.70;;;;;;5039250;28;20513;-54
2021/01/19 12:09:10;;;;;;;128.60;87.30;;;6.30;70.80;;;;;;5028638;28;20046;-55
2021/01/19 12:11:54;;;;;;;124.50;86.00;;;6.40;72.30;;;;;;5038445;28;20045;-54
2021/01/19 12:14:20;;;;;;;120.07;83.10;;;6.30;70.80;;;;;;5034774;28;20474;-55
2021/01/19 12:16:46;;;;;;;118.97;83.13;;;6.30;71.20;;;;;;5033781;28;20089;-55
2021/01/19 12:19:14;;;;;;;117.47;80.53;;;6.20;70.30;;;;;;5042123;28;20445;-56
2021/01/19 12:21:50;;;;;;;109.00;76.57;;;6.30;70.80;;;;;;5047536;28;20560;-56
2021/01/19 12:24:16;;;;;;;127.10;85.50;;;6.30;71.00;;;;;;5035424;28;20064;-56
2021/01/19 12:26:46;;;;;;;118.27;80.37;;;6.30;70.30;;;;;;5040666;28;20033;-54
2021/01/19 12:29:13;;;;;;;127.97;87.30;;;6.20;71.30;;;;;;5031711;28;20041;-55
2021/01/19 12:31:40;;;;;;;119.70;83.63;;;6.10;71.80;;;;;;5032363;28;20041;-54
2021/01/19 12:34:06;;;;;;;122.30;85.10;;;6.10;72.10;;;;;;5032942;28;20609;-55
2021/01/19 12:36:32;;;;;;;131.23;91.27;;;6.10;72.60;;;;;;5024160;28;20053;-59
2021/01/19 12:38:58;;;;;;;129.87;88.43;;;6.10;72.70;;;;;;5042202;28;20125;-54
2021/01/19 12:41:24;;;;;;;136.60;94.03;;;6.20;72.80;;;;;;5044283;28;20072;-55
2021/01/19 12:43:50;;;;;;;138.33;94.60;;;6.10;72.60;;;;;;5047561;28;20064;-55
2021/01/19 12:46:18;;;;;;;135.23;94.97;;;6.10;73.10;;;;;;5033196;28;20052;-55
2021/01/19 12:48:44;;;;;;;131.73;90.17;;;6.20;72.70;;;;;;5033706;28;20056;-56
2021/01/19 12:51:14;;;;;;;132.53;92.03;;;6.20;72.50;;;;;;5032955;28;20095;-54
2021/01/19 12:53:41;;;;;;;136.27;91.70;;;6.10;73.60;;;;;;5038141;28;20046;-54
2021/01/19 12:56:14;;;;;;;128.47;87.40;;;6.10;73.50;;;;;;5023149;28;20041;-54
2021/01/19 12:58:41;;;;;;;135.73;92.60;;;6.10;73.80;;;;;;5047482;28;20040;-57
2021/01/19 13:01:07;;;;;;;137.30;93.63;;;6.20;73.90;;;;;;5027105;28;20131;-54
2021/01/19 13:03:33;;;;;;;139.20;95.77;;;6.10;74.00;;;;;;5033179;28;20083;-56
2021/01/19 13:06:00;;;;;;;134.57;91.63;;;6.20;74.00;;;;;;5029627;28;20465;-56
2021/01/19 13:08:26;;;;;;;131.93;91.90;;;6.10;74.10;;;;;;5035504;28;20524;-53
2021/01/19 13:10:52;;;;;;;127.27;90.77;;;6.20;74.40;;;;;;5032149;28;20046;-55
2021/01/19 13:13:18;;;;;;;131.43;90.77;;;6.10;74.50;;;;;;5037329;28;20056;-54
2021/01/19 13:15:43;;;;;;;133.80;87.90;;;6.00;74.90;;;;;;5037233;28;20033;-56
2021/01/19 13:18:09;;;;;;;123.30;86.87;;;6.10;75.00;;;;;;5024652;28;20099;-53
2021/01/19 13:20:35;;;;;;;126.63;87.67;;;6.00;75.20;;;;;;5035375;28;20049;-57
2021/01/19 13:23:00;;;;;;;137.17;86.37;;;5.90;76.10;;;;;;5029677;28;20048;-51
2021/01/19 13:25:26;;;;;;;131.40;89.00;;;6.00;76.20;;;;;;5033877;28;20974;-56
2021/01/19 13:27:52;;;;;;;133.87;89.73;;;6.10;76.30;;;;;;5034085;28;20045;-55
2021/01/19 13:30:18;;;;;;;131.50;87.87;;;6.10;75.70;;;;;;5035586;28;20982;-56
2021/01/19 13:32:45;;;;;;;129.33;88.60;;;6.00;75.70;;;;;;5027130;28;20045;-56
2021/01/19 13:35:13;;;;;;;126.10;87.17;;;6.10;76.20;;;;;;5035016;28;20708;-55
2021/01/19 13:37:38;;;;;;;132.73;86.00;;;6.20;76.00;;;;;;5041417;28;20064;-56
2021/01/19 13:40:05;;;;;;;130.47;87.47;;;6.20;76.10;;;;;;5048789;28;20036;-53